Main page
METAR-TAF:

METAR-TAF

Airports :

Seinäjoki Airport

Seinäjoki-Ilmajoki, Finland

latitude: 62-41-37N, longitude: 022-49-55E, elevation: 91 m

Current weather observation

The report was made 12 minutes ago, at 22:20 UTC
Wind 13 kt from the South/Southeast, varying between East/Southeast and Southwest
Temperature 1°C
Humidity 80%
Pressure 999 hPa
Visibility 10 km or more
Broken clouds at a height of 1600 ft
Overcast at a height of 1900 ft

METAR: EFSI 202220Z AUTO 16013KT 110V220 9999 BKN016 OVC019 01/M02 Q0999

Time: 00:32 (22:32 UTC)


TAF: missing

Weather observations and forecasts of more than 4000 airports (METAR and TAF reports).

The available stations are represented by yellow and red dots on the map.

Hover mouse over dot to see the name of the station.

Then click to see weather observations and forecasts.

To change the map : click on the green buttons with a black cross to zoom in, on the green button with a dash to zoom out, or on the green arrows for adjacent maps.


METAR-TAF: